sensor_id;sensor_type;location;lat;lon;timestamp;temperature;humidity
44767;DHT22;30487;48.716;9.272;2022-10-31T00:01:17;14.20;99.90
44767;DHT22;30487;48.716;9.272;2022-10-31T00:03:43;14.20;99.90
44767;DHT22;30487;48.716;9.272;2022-10-31T00:06:09;14.10;99.90
44767;DHT22;30487;48.716;9.272;2022-10-31T00:08:34;14.10;99.90
44767;DHT22;30487;48.716;9.272;2022-10-31T00:11:00;14.00;99.90
44767;DHT22;30487;48.716;9.272;2022-10-31T00:13:26;14.00;99.90
44767;DHT22;30487;48.716;9.272;2022-10-31T00:15:51;13.90;99.90
44767;DHT22;30487;48.716;9.272;2022-10-31T00:18:17;14.00;99.90
44767;DHT22;30487;48.716;9.272;2022-10-31T00:20:42;13.90;99.90
44767;DHT22;30487;48.716;9.272;2022-10-31T00:23:09;13.90;99.90
44767;DHT22;30487;48.716;9.272;2022-10-31T00:25:37;13.90;99.90
44767;DHT22;30487;48.716;9.272;2022-10-31T00:28:04;13.90;99.90
44767;DHT22;30487;48.716;9.272;2022-10-31T00:30:30;13.80;99.90
44767;DHT22;30487;48.716;9.272;2022-10-31T00:32:57;13.90;99.90
44767;DHT22;30487;48.716;9.272;2022-10-31T00:35:23;13.90;99.90
44767;DHT22;30487;48.716;9.272;2022-10-31T00:37:48;13.90;99.90
44767;DHT22;30487;48.716;9.272;2022-10-31T00:40:14;13.90;99.90
44767;DHT22;30487;48.716;9.272;2022-10-31T00:42:40;13.80;99.90
44767;DHT22;30487;48.716;9.272;2022-10-31T00:45:08;13.80;99.90
44767;DHT22;30487;48.716;9.272;2022-10-31T00:47:34;13.80;99.90
44767;DHT22;30487;48.716;9.272;2022-10-31T00:49:59;13.80;99.90
44767;DHT22;30487;48.716;9.272;2022-10-31T00:52:25;13.80;99.90
44767;DHT22;30487;48.716;9.272;2022-10-31T00:54:50;13.70;99.90
44767;DHT22;30487;48.716;9.272;2022-10-31T00:57:16;13.60;99.90
44767;DHT22;30487;48.716;9.272;2022-10-31T00:59:41;13.60;99.90
44767;DHT22;30487;48.716;9.272;2022-10-31T01:02:07;13.60;99.90
44767;DHT22;30487;48.716;9.272;2022-10-31T01:04:33;13.50;99.90
44767;DHT22;30487;48.716;9.272;2022-10-31T01:06:58;13.60;99.90
44767;DHT22;30487;48.716;9.272;2022-10-31T01:09:24;13.60;99.90
44767;DHT22;30487;48.716;9.272;2022-10-31T01:11:49;13.50;99.90
44767;DHT22;30487;48.716;9.272;2022-10-31T01:14:15;13.40;99.90
44767;DHT22;30487;48.716;9.272;2022-10-31T01:16:41;13.30;99.90
44767;DHT22;30487;48.716;9.272;2022-10-31T01:19:06;13.30;99.90
44767;DHT22;30487;48.716;9.272;2022-10-31T01:21:32;13.30;99.90
44767;DHT22;30487;48.716;9.272;2022-10-31T01:23:58;13.30;99.90
44767;DHT22;30487;48.716;9.272;2022-10-31T01:26:26;13.30;99.90
44767;DHT22;30487;48.716;9.272;2022-10-31T01:28:59;13.20;99.90
44767;DHT22;30487;48.716;9.272;2022-10-31T01:31:33;13.20;99.90
44767;DHT22;30487;48.716;9.272;2022-10-31T01:33:59;13.20;99.90
44767;DHT22;30487;48.716;9.272;2022-10-31T01:36:31;13.10;99.90
44767;DHT22;30487;48.716;9.272;2022-10-31T01:38:59;13.10;99.90
44767;DHT22;30487;48.716;9.272;2022-10-31T01:41:27;13.10;99.90
44767;DHT22;30487;48.716;9.272;2022-10-31T01:43:56;13.10;99.90
44767;DHT22;30487;48.716;9.272;2022-10-31T01:46:25;13.00;99.90
44767;DHT22;30487;48.716;9.272;2022-10-31T01:48:53;13.00;99.90
44767;DHT22;30487;48.716;9.272;2022-10-31T01:51:23;13.00;99.90
44767;DHT22;30487;48.716;9.272;2022-10-31T01:53:52;13.00;99.90
44767;DHT22;30487;48.716;9.272;2022-10-31T01:56:19;13.00;99.90
44767;DHT22;30487;48.716;9.272;2022-10-31T01:58:46;12.90;99.90
44767;DHT22;30487;48.716;9.272;2022-10-31T02:01:13;12.90;99.90
44767;DHT22;30487;48.716;9.272;2022-10-31T02:03:39;12.80;99.90
44767;DHT22;30487;48.716;9.272;2022-10-31T02:06:10;12.90;99.90
44767;DHT22;30487;48.716;9.272;2022-10-31T02:08:39;12.80;99.90
44767;DHT22;30487;48.716;9.272;2022-10-31T02:11:06;12.80;99.90
44767;DHT22;30487;48.716;9.272;2022-10-31T02:13:34;12.80;99.90
44767;DHT22;30487;48.716;9.272;2022-10-31T02:15:59;12.80;99.90
44767;DHT22;30487;48.716;9.272;2022-10-31T02:18:27;12.80;99.90
44767;DHT22;30487;48.716;9.272;2022-10-31T02:31:52;12.60;99.90
44767;DHT22;30487;48.716;9.272;2022-10-31T02:39:37;12.60;99.90
44767;DHT22;30487;48.716;9.272;2022-10-31T02:42:18;12.60;99.90
44767;DHT22;30487;48.716;9.272;2022-10-31T02:44:55;12.60;99.90
44767;DHT22;30487;48.716;9.272;2022-10-31T02:47:26;12.60;99.90
44767;DHT22;30487;48.716;9.272;2022-10-31T02:52:29;12.50;99.90
44767;DHT22;30487;48.716;9.272;2022-10-31T02:54:55;12.60;99.90
44767;DHT22;30487;48.716;9.272;2022-10-31T02:57:41;12.50;99.90
44767;DHT22;30487;48.716;9.272;2022-10-31T03:00:08;12.50;99.90
44767;DHT22;30487;48.716;9.272;2022-10-31T03:10:59;12.40;99.90
44767;DHT22;30487;48.716;9.272;2022-10-31T03:13:32;12.40;99.90
44767;DHT22;30487;48.716;9.272;2022-10-31T03:16:07;12.40;99.90
44767;DHT22;30487;48.716;9.272;2022-10-31T03:18:43;12.40;99.90
44767;DHT22;30487;48.716;9.272;2022-10-31T03:23:37;12.40;99.90
44767;DHT22;30487;48.716;9.272;2022-10-31T03:26:06;12.30;99.90
44767;DHT22;30487;48.716;9.272;2022-10-31T03:29:05;12.30;99.90
44767;DHT22;30487;48.716;9.272;2022-10-31T03:34:12;12.20;99.90
44767;DHT22;30487;48.716;9.272;2022-10-31T03:36:39;12.20;99.90
44767;DHT22;30487;48.716;9.272;2022-10-31T03:39:07;12.10;99.90
44767;DHT22;30487;48.716;9.272;2022-10-31T03:41:38;12.00;99.90
44767;DHT22;30487;48.716;9.272;2022-10-31T03:44:11;12.00;99.90
44767;DHT22;30487;48.716;9.272;2022-10-31T03:46:38;12.00;99.90
44767;DHT22;30487;48.716;9.272;2022-10-31T03:49:04;12.00;99.90
44767;DHT22;30487;48.716;9.272;2022-10-31T03:52:20;12.00;99.90
44767;DHT22;30487;48.716;9.272;2022-10-31T03:54:40;12.10;99.90
44767;DHT22;30487;48.716;9.272;2022-10-31T03:57:41;12.00;99.90
44767;DHT22;30487;48.716;9.272;2022-10-31T04:00:10;12.00;99.90
44767;DHT22;30487;48.716;9.272;2022-10-31T04:02:43;12.00;99.90
44767;DHT22;30487;48.716;9.272;2022-10-31T04:05:11;11.90;99.90
44767;DHT22;30487;48.716;9.272;2022-10-31T04:07:41;12.00;99.90
44767;DHT22;30487;48.716;9.272;2022-10-31T04:10:11;12.00;99.90
44767;DHT22;30487;48.716;9.272;2022-10-31T04:12:39;11.90;99.90
44767;DHT22;30487;48.716;9.272;2022-10-31T04:15:06;11.90;99.90
44767;DHT22;30487;48.716;9.272;2022-10-31T04:17:35;11.80;99.90
44767;DHT22;30487;48.716;9.272;2022-10-31T04:20:03;11.80;99.90
44767;DHT22;30487;48.716;9.272;2022-10-31T04:22:29;11.80;99.90
44767;DHT22;30487;48.716;9.272;2022-10-31T04:24:54;11.80;99.90
44767;DHT22;30487;48.716;9.272;2022-10-31T04:27:20;11.80;99.90
44767;DHT22;30487;48.716;9.272;2022-10-31T04:29:45;11.80;99.90
44767;DHT22;30487;48.716;9.272;2022-10-31T04:32:11;11.90;99.90
44767;DHT22;30487;48.716;9.272;2022-10-31T04:34:36;11.90;99.90
44767;DHT22;30487;48.716;9.272;2022-10-31T04:37:02;11.90;99.90
44767;DHT22;30487;48.716;9.272;2022-10-31T04:39:28;11.90;99.90
44767;DHT22;30487;48.716;9.272;2022-10-31T04:41:53;11.80;99.90
44767;DHT22;30487;48.716;9.272;2022-10-31T04:44:19;11.90;99.90
44767;DHT22;30487;48.716;9.272;2022-10-31T04:46:44;11.80;99.90
44767;DHT22;30487;48.716;9.272;2022-10-31T04:49:10;11.80;99.90
44767;DHT22;30487;48.716;9.272;2022-10-31T04:51:35;11.90;99.90
44767;DHT22;30487;48.716;9.272;2022-10-31T04:54:01;11.80;99.90
44767;DHT22;30487;48.716;9.272;2022-10-31T04:56:27;11.80;99.90
44767;DHT22;30487;48.716;9.272;2022-10-31T04:58:52;11.90;99.90
44767;DHT22;30487;48.716;9.272;2022-10-31T05:01:18;11.80;99.90
44767;DHT22;30487;48.716;9.272;2022-10-31T05:03:43;11.80;99.90
44767;DHT22;30487;48.716;9.272;2022-10-31T05:06:09;11.70;99.90
44767;DHT22;30487;48.716;9.272;2022-10-31T05:08:34;11.60;99.90
44767;DHT22;30487;48.716;9.272;2022-10-31T05:11:01;11.60;99.90
44767;DHT22;30487;48.716;9.272;2022-10-31T05:13:27;11.50;99.90
44767;DHT22;30487;48.716;9.272;2022-10-31T05:15:53;11.50;99.90
44767;DHT22;30487;48.716;9.272;2022-10-31T05:18:18;11.50;99.90
44767;DHT22;30487;48.716;9.272;2022-10-31T05:20:44;11.50;99.90
44767;DHT22;30487;48.716;9.272;2022-10-31T05:23:10;11.50;99.90
44767;DHT22;30487;48.716;9.272;2022-10-31T05:25:35;11.50;99.90
44767;DHT22;30487;48.716;9.272;2022-10-31T05:28:01;11.40;99.90
44767;DHT22;30487;48.716;9.272;2022-10-31T05:30:30;11.40;99.90
44767;DHT22;30487;48.716;9.272;2022-10-31T05:32:56;11.40;99.90
44767;DHT22;30487;48.716;9.272;2022-10-31T05:35:29;11.30;99.90
44767;DHT22;30487;48.716;9.272;2022-10-31T05:37:55;11.30;99.90
44767;DHT22;30487;48.716;9.272;2022-10-31T05:40:21;11.00;99.90
44767;DHT22;30487;48.716;9.272;2022-10-31T05:42:47;10.90;99.90
44767;DHT22;30487;48.716;9.272;2022-10-31T05:45:16;10.90;99.90
44767;DHT22;30487;48.716;9.272;2022-10-31T05:47:42;10.90;99.90
44767;DHT22;30487;48.716;9.272;2022-10-31T05:50:14;10.80;99.90
44767;DHT22;30487;48.716;9.272;2022-10-31T05:52:40;10.70;99.90
44767;DHT22;30487;48.716;9.272;2022-10-31T05:55:06;10.80;99.90
44767;DHT22;30487;48.716;9.272;2022-10-31T05:57:33;10.80;99.90
44767;DHT22;30487;48.716;9.272;2022-10-31T05:59:59;10.80;99.90
44767;DHT22;30487;48.716;9.272;2022-10-31T06:02:25;10.70;99.90
44767;DHT22;30487;48.716;9.272;2022-10-31T06:04:52;10.70;99.90
44767;DHT22;30487;48.716;9.272;2022-10-31T06:07:17;10.80;99.90
44767;DHT22;30487;48.716;9.272;2022-10-31T06:09:43;10.80;99.90
44767;DHT22;30487;48.716;9.272;2022-10-31T06:12:08;10.90;99.90
44767;DHT22;30487;48.716;9.272;2022-10-31T06:14:34;10.90;99.90
44767;DHT22;30487;48.716;9.272;2022-10-31T06:17:00;11.00;99.90
44767;DHT22;30487;48.716;9.272;2022-10-31T06:19:25;11.00;99.90
44767;DHT22;30487;48.716;9.272;2022-10-31T06:21:51;11.00;99.90
44767;DHT22;30487;48.716;9.272;2022-10-31T06:24:16;11.00;99.90
44767;DHT22;30487;48.716;9.272;2022-10-31T06:26:42;11.00;99.90
44767;DHT22;30487;48.716;9.272;2022-10-31T06:29:07;11.00;99.90
44767;DHT22;30487;48.716;9.272;2022-10-31T06:31:33;11.10;99.90
44767;DHT22;30487;48.716;9.272;2022-10-31T06:33:59;11.10;99.90
44767;DHT22;30487;48.716;9.272;2022-10-31T06:36:24;11.10;99.90
44767;DHT22;30487;48.716;9.272;2022-10-31T06:38:50;11.10;99.90
44767;DHT22;30487;48.716;9.272;2022-10-31T06:41:15;11.00;99.90
44767;DHT22;30487;48.716;9.272;2022-10-31T06:43:41;11.10;99.90
44767;DHT22;30487;48.716;9.272;2022-10-31T06:46:07;11.20;99.90
44767;DHT22;30487;48.716;9.272;2022-10-31T06:48:32;11.20;99.90
44767;DHT22;30487;48.716;9.272;2022-10-31T06:50:59;11.10;99.90
44767;DHT22;30487;48.716;9.272;2022-10-31T06:53:25;11.10;99.90
44767;DHT22;30487;48.716;9.272;2022-10-31T06:55:51;11.10;99.90
44767;DHT22;30487;48.716;9.272;2022-10-31T06:58:16;11.20;99.90
44767;DHT22;30487;48.716;9.272;2022-10-31T07:00:42;11.20;99.90
44767;DHT22;30487;48.716;9.272;2022-10-31T07:03:12;11.20;99.90
44767;DHT22;30487;48.716;9.272;2022-10-31T07:05:38;11.30;99.90
44767;DHT22;30487;48.716;9.272;2022-10-31T07:08:06;11.30;99.90
44767;DHT22;30487;48.716;9.272;2022-10-31T07:10:33;11.30;99.90
44767;DHT22;30487;48.716;9.272;2022-10-31T07:13:04;11.50;99.90
44767;DHT22;30487;48.716;9.272;2022-10-31T07:15:33;11.60;99.90
44767;DHT22;30487;48.716;9.272;2022-10-31T07:18:03;11.70;99.90
44767;DHT22;30487;48.716;9.272;2022-10-31T07:20:30;11.80;99.90
44767;DHT22;30487;48.716;9.272;2022-10-31T07:22:56;11.80;99.90
44767;DHT22;30487;48.716;9.272;2022-10-31T07:25:22;11.80;99.90
44767;DHT22;30487;48.716;9.272;2022-10-31T07:27:48;12.10;99.90
44767;DHT22;30487;48.716;9.272;2022-10-31T07:30:14;12.10;99.90
44767;DHT22;30487;48.716;9.272;2022-10-31T07:32:49;12.20;99.90
44767;DHT22;30487;48.716;9.272;2022-10-31T07:35:17;12.20;99.90
44767;DHT22;30487;48.716;9.272;2022-10-31T07:37:43;12.30;99.90
44767;DHT22;30487;48.716;9.272;2022-10-31T07:40:10;12.50;99.90
44767;DHT22;30487;48.716;9.272;2022-10-31T07:42:41;12.60;99.90
44767;DHT22;30487;48.716;9.272;2022-10-31T07:45:09;12.50;99.90
44767;DHT22;30487;48.716;9.272;2022-10-31T07:47:42;12.50;99.90
44767;DHT22;30487;48.716;9.272;2022-10-31T07:50:11;12.60;99.90
44767;DHT22;30487;48.716;9.272;2022-10-31T07:52:37;12.60;99.90
44767;DHT22;30487;48.716;9.272;2022-10-31T07:55:04;12.70;99.90
44767;DHT22;30487;48.716;9.272;2022-10-31T07:57:29;12.70;99.90
44767;DHT22;30487;48.716;9.272;2022-10-31T07:59:55;12.90;99.90
44767;DHT22;30487;48.716;9.272;2022-10-31T08:02:21;13.00;99.90
44767;DHT22;30487;48.716;9.272;2022-10-31T08:04:47;13.00;99.90
44767;DHT22;30487;48.716;9.272;2022-10-31T08:07:12;13.30;99.90
44767;DHT22;30487;48.716;9.272;2022-10-31T08:09:38;13.40;99.90
44767;DHT22;30487;48.716;9.272;2022-10-31T08:12:04;13.50;99.90
44767;DHT22;30487;48.716;9.272;2022-10-31T08:14:29;13.30;99.90
44767;DHT22;30487;48.716;9.272;2022-10-31T08:16:55;13.50;99.90
44767;DHT22;30487;48.716;9.272;2022-10-31T08:19:20;13.70;99.90
44767;DHT22;30487;48.716;9.272;2022-10-31T08:21:46;13.80;99.90
44767;DHT22;30487;48.716;9.272;2022-10-31T08:24:15;13.90;99.90
44767;DHT22;30487;48.716;9.272;2022-10-31T08:26:40;14.10;99.90
44767;DHT22;30487;48.716;9.272;2022-10-31T08:29:06;14.30;99.90
44767;DHT22;30487;48.716;9.272;2022-10-31T08:31:32;14.50;99.90
44767;DHT22;30487;48.716;9.272;2022-10-31T08:33:57;14.50;99.90
44767;DHT22;30487;48.716;9.272;2022-10-31T08:36:23;14.40;99.90
44767;DHT22;30487;48.716;9.272;2022-10-31T08:38:49;14.30;99.90
44767;DHT22;30487;48.716;9.272;2022-10-31T08:41:14;14.40;99.90
44767;DHT22;30487;48.716;9.272;2022-10-31T08:43:40;14.50;99.90
44767;DHT22;30487;48.716;9.272;2022-10-31T08:46:06;14.80;99.90
44767;DHT22;30487;48.716;9.272;2022-10-31T08:48:32;14.70;99.90
44767;DHT22;30487;48.716;9.272;2022-10-31T08:50:58;14.80;99.90
44767;DHT22;30487;48.716;9.272;2022-10-31T08:53:25;14.90;99.90
44767;DHT22;30487;48.716;9.272;2022-10-31T08:55:51;14.90;99.90
44767;DHT22;30487;48.716;9.272;2022-10-31T08:58:19;15.00;99.90
44767;DHT22;30487;48.716;9.272;2022-10-31T09:00:47;15.00;99.90
44767;DHT22;30487;48.716;9.272;2022-10-31T09:03:18;14.90;99.90
44767;DHT22;30487;48.716;9.272;2022-10-31T09:05:45;14.80;99.90
44767;DHT22;30487;48.716;9.272;2022-10-31T09:08:11;14.80;99.90
44767;DHT22;30487;48.716;9.272;2022-10-31T09:10:37;14.80;99.90
44767;DHT22;30487;48.716;9.272;2022-10-31T09:13:09;15.00;99.90
44767;DHT22;30487;48.716;9.272;2022-10-31T09:15:40;15.00;99.90
44767;DHT22;30487;48.716;9.272;2022-10-31T09:18:07;15.00;99.90
44767;DHT22;30487;48.716;9.272;2022-10-31T09:20:34;15.00;99.90
44767;DHT22;30487;48.716;9.272;2022-10-31T09:23:29;15.00;99.90
44767;DHT22;30487;48.716;9.272;2022-10-31T09:25:55;14.90;99.90
44767;DHT22;30487;48.716;9.272;2022-10-31T09:28:23;15.00;99.90
44767;DHT22;30487;48.716;9.272;2022-10-31T09:30:50;15.10;99.90
44767;DHT22;30487;48.716;9.272;2022-10-31T09:33:16;15.30;99.90
44767;DHT22;30487;48.716;9.272;2022-10-31T09:35:42;15.40;99.90
44767;DHT22;30487;48.716;9.272;2022-10-31T09:38:12;15.50;99.90
44767;DHT22;30487;48.716;9.272;2022-10-31T09:40:45;15.30;99.90
44767;DHT22;30487;48.716;9.272;2022-10-31T09:45:51;15.30;99.90
44767;DHT22;30487;48.716;9.272;2022-10-31T09:51:30;15.90;99.90
44767;DHT22;30487;48.716;9.272;2022-10-31T09:54:05;15.90;99.90
44767;DHT22;30487;48.716;9.272;2022-10-31T09:56:32;16.10;99.90
44767;DHT22;30487;48.716;9.272;2022-10-31T09:59:00;16.30;99.90
44767;DHT22;30487;48.716;9.272;2022-10-31T10:10:08;17.20;99.90
44767;DHT22;30487;48.716;9.272;2022-10-31T10:18:03;17.60;99.90
44767;DHT22;30487;48.716;9.272;2022-10-31T10:25:49;17.80;99.90
44767;DHT22;30487;48.716;9.272;2022-10-31T10:28:26;17.80;99.90
44767;DHT22;30487;48.716;9.272;2022-10-31T10:31:01;17.90;99.90
44767;DHT22;30487;48.716;9.272;2022-10-31T10:36:00;18.20;99.90
44767;DHT22;30487;48.716;9.272;2022-10-31T10:41:03;18.30;99.90
44767;DHT22;30487;48.716;9.272;2022-10-31T10:43:33;18.50;99.90
44767;DHT22;30487;48.716;9.272;2022-10-31T10:46:23;18.30;99.90
44767;DHT22;30487;48.716;9.272;2022-10-31T10:49:19;18.20;99.90
44767;DHT22;30487;48.716;9.272;2022-10-31T10:51:59;18.30;99.90
44767;DHT22;30487;48.716;9.272;2022-10-31T10:55:02;18.00;99.90
44767;DHT22;30487;48.716;9.272;2022-10-31T11:03:02;17.60;99.90
44767;DHT22;30487;48.716;9.272;2022-10-31T11:05:35;17.60;99.90
44767;DHT22;30487;48.716;9.272;2022-10-31T11:08:02;17.50;99.90
44767;DHT22;30487;48.716;9.272;2022-10-31T11:10:28;17.40;99.90
44767;DHT22;30487;48.716;9.272;2022-10-31T11:13:14;17.50;99.90
44767;DHT22;30487;48.716;9.272;2022-10-31T11:16:03;17.50;99.90
44767;DHT22;30487;48.716;9.272;2022-10-31T11:18:34;17.70;99.90
44767;DHT22;30487;48.716;9.272;2022-10-31T11:21:01;18.00;99.90
44767;DHT22;30487;48.716;9.272;2022-10-31T11:23:29;18.50;99.90
44767;DHT22;30487;48.716;9.272;2022-10-31T11:26:06;18.80;99.90
44767;DHT22;30487;48.716;9.272;2022-10-31T11:28:33;19.00;99.90
44767;DHT22;30487;48.716;9.272;2022-10-31T11:31:08;19.10;99.90
44767;DHT22;30487;48.716;9.272;2022-10-31T11:34:21;19.30;99.90
44767;DHT22;30487;48.716;9.272;2022-10-31T11:36:29;19.50;99.90
44767;DHT22;30487;48.716;9.272;2022-10-31T11:38:55;19.70;99.90
44767;DHT22;30487;48.716;9.272;2022-10-31T11:41:36;19.90;99.90
44767;DHT22;30487;48.716;9.272;2022-10-31T11:44:17;20.10;99.90
44767;DHT22;30487;48.716;9.272;2022-10-31T11:46:51;20.20;99.90
44767;DHT22;30487;48.716;9.272;2022-10-31T11:49:33;20.30;99.90
44767;DHT22;30487;48.716;9.272;2022-10-31T11:52:12;20.40;99.90
44767;DHT22;30487;48.716;9.272;2022-10-31T11:54:45;20.50;99.90
44767;DHT22;30487;48.716;9.272;2022-10-31T11:57:31;20.80;99.90
44767;DHT22;30487;48.716;9.272;2022-10-31T11:59:59;20.60;99.90
44767;DHT22;30487;48.716;9.272;2022-10-31T12:02:26;20.40;99.90
44767;DHT22;30487;48.716;9.272;2022-10-31T12:07:42;20.20;99.90
44767;DHT22;30487;48.716;9.272;2022-10-31T12:10:11;19.80;99.90
44767;DHT22;30487;48.716;9.272;2022-10-31T12:12:44;19.50;99.90
44767;DHT22;30487;48.716;9.272;2022-10-31T12:15:32;19.50;99.90
44767;DHT22;30487;48.716;9.272;2022-10-31T12:24:04;20.10;99.90
44767;DHT22;30487;48.716;9.272;2022-10-31T12:26:42;20.10;99.90
44767;DHT22;30487;48.716;9.272;2022-10-31T12:32:00;19.70;99.90
44767;DHT22;30487;48.716;9.272;2022-10-31T12:35:15;19.60;99.90
44767;DHT22;30487;48.716;9.272;2022-10-31T12:41:02;19.00;99.90
44767;DHT22;30487;48.716;9.272;2022-10-31T12:57:23;18.50;99.90
44767;DHT22;30487;48.716;9.272;2022-10-31T13:00:14;18.50;99.90
44767;DHT22;30487;48.716;9.272;2022-10-31T13:03:17;18.40;99.90
44767;DHT22;30487;48.716;9.272;2022-10-31T13:05:57;18.30;99.90
44767;DHT22;30487;48.716;9.272;2022-10-31T13:08:33;18.00;99.90
44767;DHT22;30487;48.716;9.272;2022-10-31T13:11:14;18.10;99.90
44767;DHT22;30487;48.716;9.272;2022-10-31T13:16:33;18.10;99.90
44767;DHT22;30487;48.716;9.272;2022-10-31T13:21:44;18.20;99.90
44767;DHT22;30487;48.716;9.272;2022-10-31T13:24:18;18.10;99.90
44767;DHT22;30487;48.716;9.272;2022-10-31T13:26:52;18.10;99.90
44767;DHT22;30487;48.716;9.272;2022-10-31T13:29:29;18.00;99.90
44767;DHT22;30487;48.716;9.272;2022-10-31T13:31:56;18.00;99.90
44767;DHT22;30487;48.716;9.272;2022-10-31T13:34:29;18.10;99.90
44767;DHT22;30487;48.716;9.272;2022-10-31T13:37:16;18.10;99.90
44767;DHT22;30487;48.716;9.272;2022-10-31T13:42:27;18.90;99.90
44767;DHT22;30487;48.716;9.272;2022-10-31T13:44:55;19.50;99.90
44767;DHT22;30487;48.716;9.272;2022-10-31T13:47:29;20.00;99.90
44767;DHT22;30487;48.716;9.272;2022-10-31T13:52:42;21.30;99.90
44767;DHT22;30487;48.716;9.272;2022-10-31T13:55:34;21.10;99.90
44767;DHT22;30487;48.716;9.272;2022-10-31T13:58:00;20.80;99.90
44767;DHT22;30487;48.716;9.272;2022-10-31T14:00:28;20.70;99.90
44767;DHT22;30487;48.716;9.272;2022-10-31T14:03:00;20.60;99.90
44767;DHT22;30487;48.716;9.272;2022-10-31T14:05:31;20.60;99.90
44767;DHT22;30487;48.716;9.272;2022-10-31T14:08:00;20.80;99.90
44767;DHT22;30487;48.716;9.272;2022-10-31T14:10:36;21.00;99.90
44767;DHT22;30487;48.716;9.272;2022-10-31T14:15:33;21.00;99.90
44767;DHT22;30487;48.716;9.272;2022-10-31T14:18:02;21.60;99.90
44767;DHT22;30487;48.716;9.272;2022-10-31T14:20:40;22.30;99.90
44767;DHT22;30487;48.716;9.272;2022-10-31T14:26:29;23.60;99.60
44767;DHT22;30487;48.716;9.272;2022-10-31T14:28:57;23.40;99.10
44767;DHT22;30487;48.716;9.272;2022-10-31T14:31:38;23.20;99.20
44767;DHT22;30487;48.716;9.272;2022-10-31T14:37:20;23.40;99.20
44767;DHT22;30487;48.716;9.272;2022-10-31T14:50:54;21.20;99.70
44767;DHT22;30487;48.716;9.272;2022-10-31T14:53:35;20.70;99.90
44767;DHT22;30487;48.716;9.272;2022-10-31T14:56:02;20.40;99.90
44767;DHT22;30487;48.716;9.272;2022-10-31T14:58:38;20.30;99.90
44767;DHT22;30487;48.716;9.272;2022-10-31T15:01:06;20.40;99.90
44767;DHT22;30487;48.716;9.272;2022-10-31T15:03:38;20.70;99.90
44767;DHT22;30487;48.716;9.272;2022-10-31T15:06:16;20.90;99.90
44767;DHT22;30487;48.716;9.272;2022-10-31T15:08:49;20.70;99.90
44767;DHT22;30487;48.716;9.272;2022-10-31T15:11:21;20.60;99.90
44767;DHT22;30487;48.716;9.272;2022-10-31T15:13:53;20.30;99.90
44767;DHT22;30487;48.716;9.272;2022-10-31T15:16:24;20.20;99.90
44767;DHT22;30487;48.716;9.272;2022-10-31T15:19:06;19.80;99.90
44767;DHT22;30487;48.716;9.272;2022-10-31T15:21:33;19.60;99.90
44767;DHT22;30487;48.716;9.272;2022-10-31T15:24:00;19.40;99.90
44767;DHT22;30487;48.716;9.272;2022-10-31T15:26:40;19.20;99.90
44767;DHT22;30487;48.716;9.272;2022-10-31T15:29:14;18.90;99.90
44767;DHT22;30487;48.716;9.272;2022-10-31T15:32:15;19.00;99.90
44767;DHT22;30487;48.716;9.272;2022-10-31T15:34:42;18.80;99.90
44767;DHT22;30487;48.716;9.272;2022-10-31T15:37:17;18.50;99.90
44767;DHT22;30487;48.716;9.272;2022-10-31T15:39:45;18.30;99.90
44767;DHT22;30487;48.716;9.272;2022-10-31T15:47:25;18.10;99.90
44767;DHT22;30487;48.716;9.272;2022-10-31T15:49:55;18.10;99.90
44767;DHT22;30487;48.716;9.272;2022-10-31T15:52:34;18.00;99.90
44767;DHT22;30487;48.716;9.272;2022-10-31T15:55:03;18.00;99.90
44767;DHT22;30487;48.716;9.272;2022-10-31T15:57:30;17.90;99.90
44767;DHT22;30487;48.716;9.272;2022-10-31T15:59:56;17.80;99.90
44767;DHT22;30487;48.716;9.272;2022-10-31T16:02:24;17.80;99.90
44767;DHT22;30487;48.716;9.272;2022-10-31T16:05:01;17.70;99.90
44767;DHT22;30487;48.716;9.272;2022-10-31T16:07:28;17.70;99.90
44767;DHT22;30487;48.716;9.272;2022-10-31T16:09:59;17.60;99.90
44767;DHT22;30487;48.716;9.272;2022-10-31T16:12:35;17.50;99.90
44767;DHT22;30487;48.716;9.272;2022-10-31T16:15:02;17.50;99.90
44767;DHT22;30487;48.716;9.272;2022-10-31T16:17:29;17.40;99.90
44767;DHT22;30487;48.716;9.272;2022-10-31T16:20:00;17.40;99.90
44767;DHT22;30487;48.716;9.272;2022-10-31T16:22:37;17.30;99.90
44767;DHT22;30487;48.716;9.272;2022-10-31T16:25:13;17.30;99.90
44767;DHT22;30487;48.716;9.272;2022-10-31T16:27:46;17.20;99.90
44767;DHT22;30487;48.716;9.272;2022-10-31T16:30:37;17.20;99.90
44767;DHT22;30487;48.716;9.272;2022-10-31T16:33:05;17.10;99.90
44767;DHT22;30487;48.716;9.272;2022-10-31T16:35:36;17.00;99.90
44767;DHT22;30487;48.716;9.272;2022-10-31T16:38:02;17.00;99.90
44767;DHT22;30487;48.716;9.272;2022-10-31T16:40:28;16.90;99.90
44767;DHT22;30487;48.716;9.272;2022-10-31T16:42:57;16.80;99.90
44767;DHT22;30487;48.716;9.272;2022-10-31T16:45:25;16.80;99.90
44767;DHT22;30487;48.716;9.272;2022-10-31T16:47:51;16.70;99.90
44767;DHT22;30487;48.716;9.272;2022-10-31T16:50:25;16.60;99.90
44767;DHT22;30487;48.716;9.272;2022-10-31T16:52:51;16.60;99.90
44767;DHT22;30487;48.716;9.272;2022-10-31T16:55:18;16.50;99.90
44767;DHT22;30487;48.716;9.272;2022-10-31T16:57:50;16.40;99.90
44767;DHT22;30487;48.716;9.272;2022-10-31T17:00:19;16.20;99.90
44767;DHT22;30487;48.716;9.272;2022-10-31T17:02:46;16.10;99.90
44767;DHT22;30487;48.716;9.272;2022-10-31T17:05:14;16.10;99.90
44767;DHT22;30487;48.716;9.272;2022-10-31T17:07:40;16.10;99.90
44767;DHT22;30487;48.716;9.272;2022-10-31T17:10:07;16.10;99.90
44767;DHT22;30487;48.716;9.272;2022-10-31T17:12:33;16.10;99.90
44767;DHT22;30487;48.716;9.272;2022-10-31T17:14:59;16.10;99.90
44767;DHT22;30487;48.716;9.272;2022-10-31T17:17:25;16.00;99.90
44767;DHT22;30487;48.716;9.272;2022-10-31T17:19:51;16.00;99.90
44767;DHT22;30487;48.716;9.272;2022-10-31T17:22:16;16.00;99.90
44767;DHT22;30487;48.716;9.272;2022-10-31T17:24:42;15.90;99.90
44767;DHT22;30487;48.716;9.272;2022-10-31T17:27:07;15.90;99.90
44767;DHT22;30487;48.716;9.272;2022-10-31T17:29:33;15.90;99.90
44767;DHT22;30487;48.716;9.272;2022-10-31T17:32:00;15.90;99.90
44767;DHT22;30487;48.716;9.272;2022-10-31T17:34:28;15.80;99.90
44767;DHT22;30487;48.716;9.272;2022-10-31T17:36:53;15.80;99.90
44767;DHT22;30487;48.716;9.272;2022-10-31T17:39:19;15.70;99.90
44767;DHT22;30487;48.716;9.272;2022-10-31T17:41:45;15.60;99.90
44767;DHT22;30487;48.716;9.272;2022-10-31T17:44:11;15.60;99.90
44767;DHT22;30487;48.716;9.272;2022-10-31T17:46:37;15.50;99.90
44767;DHT22;30487;48.716;9.272;2022-10-31T17:49:03;15.50;99.90
44767;DHT22;30487;48.716;9.272;2022-10-31T17:51:33;15.40;99.90
44767;DHT22;30487;48.716;9.272;2022-10-31T17:53:59;15.40;99.90
44767;DHT22;30487;48.716;9.272;2022-10-31T17:56:25;15.30;99.90
44767;DHT22;30487;48.716;9.272;2022-10-31T17:58:50;15.20;99.90